sensor_id;sensor_type;location;lat;lon;timestamp;P1;durP1;ratioP1;P2;durP2;ratioP2
64678;SDS011;51094;53.864;27.676;2023-02-28T00:01:30;1.85;;;1.85;;
64678;SDS011;51094;53.864;27.676;2023-02-28T00:03:57;2.08;;;2.08;;
64678;SDS011;51094;53.864;27.676;2023-02-28T00:06:24;2.10;;;2.10;;
64678;SDS011;51094;53.864;27.676;2023-02-28T00:08:51;2.10;;;2.10;;
64678;SDS011;51094;53.864;27.676;2023-02-28T00:11:18;2.00;;;2.00;;
64678;SDS011;51094;53.864;27.676;2023-02-28T00:13:47;2.25;;;2.25;;
64678;SDS011;51094;53.864;27.676;2023-02-28T00:16:16;2.42;;;2.42;;
64678;SDS011;51094;53.864;27.676;2023-02-28T00:18:55;2.20;;;2.20;;
64678;SDS011;51094;53.864;27.676;2023-02-28T00:21:22;2.22;;;2.22;;
64678;SDS011;51094;53.864;27.676;2023-02-28T00:23:49;2.45;;;2.45;;
64678;SDS011;51094;53.864;27.676;2023-02-28T00:26:16;2.40;;;2.40;;
64678;SDS011;51094;53.864;27.676;2023-02-28T00:28:45;2.35;;;2.35;;
64678;SDS011;51094;53.864;27.676;2023-02-28T00:31:12;2.17;;;2.17;;
64678;SDS011;51094;53.864;27.676;2023-02-28T00:33:39;2.20;;;2.20;;
64678;SDS011;51094;53.864;27.676;2023-02-28T00:36:06;2.03;;;2.03;;
64678;SDS011;51094;53.864;27.676;2023-02-28T00:38:35;2.10;;;2.10;;
64678;SDS011;51094;53.864;27.676;2023-02-28T00:41:02;2.50;;;2.50;;
64678;SDS011;51094;53.864;27.676;2023-02-28T00:43:32;2.20;;;2.20;;
64678;SDS011;51094;53.864;27.676;2023-02-28T00:46:00;2.30;;;2.30;;
64678;SDS011;51094;53.864;27.676;2023-02-28T00:48:29;2.10;;;2.10;;
64678;SDS011;51094;53.864;27.676;2023-02-28T00:50:56;2.20;;;2.20;;
64678;SDS011;51094;53.864;27.676;2023-02-28T00:53:24;2.30;;;2.30;;
64678;SDS011;51094;53.864;27.676;2023-02-28T00:55:50;2.03;;;2.03;;
64678;SDS011;51094;53.864;27.676;2023-02-28T00:58:17;2.00;;;2.00;;
64678;SDS011;51094;53.864;27.676;2023-02-28T01:00:44;2.00;;;2.00;;
64678;SDS011;51094;53.864;27.676;2023-02-28T01:03:18;2.20;;;2.20;;
64678;SDS011;51094;53.864;27.676;2023-02-28T01:05:47;2.05;;;2.05;;
64678;SDS011;51094;53.864;27.676;2023-02-28T01:08:15;2.10;;;2.10;;
64678;SDS011;51094;53.864;27.676;2023-02-28T01:10:42;2.10;;;2.10;;
64678;SDS011;51094;53.864;27.676;2023-02-28T01:13:09;2.25;;;2.25;;
64678;SDS011;51094;53.864;27.676;2023-02-28T01:15:37;2.58;;;2.58;;
64678;SDS011;51094;53.864;27.676;2023-02-28T01:18:08;2.53;;;2.53;;
64678;SDS011;51094;53.864;27.676;2023-02-28T01:20:36;2.50;;;2.50;;
64678;SDS011;51094;53.864;27.676;2023-02-28T01:23:03;2.47;;;2.47;;
64678;SDS011;51094;53.864;27.676;2023-02-28T01:25:30;2.80;;;2.80;;
64678;SDS011;51094;53.864;27.676;2023-02-28T01:27:57;2.70;;;2.70;;
64678;SDS011;51094;53.864;27.676;2023-02-28T01:30:25;2.80;;;2.80;;
64678;SDS011;51094;53.864;27.676;2023-02-28T01:32:52;2.90;;;2.90;;
64678;SDS011;51094;53.864;27.676;2023-02-28T01:35:20;2.92;;;2.92;;
64678;SDS011;51094;53.864;27.676;2023-02-28T01:37:46;2.88;;;2.85;;
64678;SDS011;51094;53.864;27.676;2023-02-28T01:40:13;2.80;;;2.80;;
64678;SDS011;51094;53.864;27.676;2023-02-28T01:42:41;2.90;;;2.90;;
64678;SDS011;51094;53.864;27.676;2023-02-28T01:47:50;2.90;;;2.90;;
64678;SDS011;51094;53.864;27.676;2023-02-28T01:50:20;3.13;;;3.13;;
64678;SDS011;51094;53.864;27.676;2023-02-28T01:52:51;2.90;;;2.90;;
64678;SDS011;51094;53.864;27.676;2023-02-28T01:55:22;3.15;;;3.15;;
64678;SDS011;51094;53.864;27.676;2023-02-28T01:57:58;3.42;;;3.42;;
64678;SDS011;51094;53.864;27.676;2023-02-28T02:00:29;2.90;;;2.90;;
64678;SDS011;51094;53.864;27.676;2023-02-28T02:03:01;3.10;;;3.10;;
64678;SDS011;51094;53.864;27.676;2023-02-28T02:05:36;4.13;;;4.03;;
64678;SDS011;51094;53.864;27.676;2023-02-28T02:08:09;3.63;;;3.53;;
64678;SDS011;51094;53.864;27.676;2023-02-28T02:10:41;3.72;;;3.63;;
64678;SDS011;51094;53.864;27.676;2023-02-28T02:21:30;3.70;;;3.65;;
64678;SDS011;51094;53.864;27.676;2023-02-28T02:24:40;4.13;;;4.03;;
64678;SDS011;51094;53.864;27.676;2023-02-28T02:27:16;4.07;;;3.97;;
64678;SDS011;51094;53.864;27.676;2023-02-28T02:33:02;4.28;;;4.18;;
64678;SDS011;51094;53.864;27.676;2023-02-28T02:38:36;3.83;;;3.72;;
64678;SDS011;51094;53.864;27.676;2023-02-28T02:41:12;4.00;;;3.90;;
64678;SDS011;51094;53.864;27.676;2023-02-28T02:44:02;4.30;;;4.20;;
64678;SDS011;51094;53.864;27.676;2023-02-28T02:46:39;3.67;;;3.67;;
64678;SDS011;51094;53.864;27.676;2023-02-28T02:49:13;3.78;;;3.67;;
64678;SDS011;51094;53.864;27.676;2023-02-28T02:51:54;3.80;;;3.70;;
64678;SDS011;51094;53.864;27.676;2023-02-28T02:54:30;3.70;;;3.70;;
64678;SDS011;51094;53.864;27.676;2023-02-28T02:57:04;3.72;;;3.72;;
64678;SDS011;51094;53.864;27.676;2023-02-28T02:59:35;3.63;;;3.63;;
64678;SDS011;51094;53.864;27.676;2023-02-28T03:04:38;3.42;;;3.38;;
64678;SDS011;51094;53.864;27.676;2023-02-28T03:07:09;3.45;;;3.35;;
64678;SDS011;51094;53.864;27.676;2023-02-28T03:09:36;3.28;;;3.20;;
64678;SDS011;51094;53.864;27.676;2023-02-28T03:12:07;3.45;;;3.45;;
64678;SDS011;51094;53.864;27.676;2023-02-28T03:17:42;3.83;;;3.72;;
64678;SDS011;51094;53.864;27.676;2023-02-28T03:23:15;3.97;;;3.88;;
64678;SDS011;51094;53.864;27.676;2023-02-28T03:28:15;3.97;;;3.88;;
64678;SDS011;51094;53.864;27.676;2023-02-28T03:33:36;3.90;;;3.80;;
64678;SDS011;51094;53.864;27.676;2023-02-28T03:36:16;3.92;;;3.83;;
64678;SDS011;51094;53.864;27.676;2023-02-28T03:38:50;4.15;;;4.05;;
64678;SDS011;51094;53.864;27.676;2023-02-28T03:41:22;4.60;;;4.50;;
64678;SDS011;51094;53.864;27.676;2023-02-28T03:46:44;4.35;;;4.25;;
64678;SDS011;51094;53.864;27.676;2023-02-28T03:49:23;4.70;;;4.60;;
64678;SDS011;51094;53.864;27.676;2023-02-28T03:51:55;4.72;;;4.63;;
64678;SDS011;51094;53.864;27.676;2023-02-28T03:54:29;4.68;;;4.57;;
64678;SDS011;51094;53.864;27.676;2023-02-28T04:00:03;4.95;;;4.85;;
64678;SDS011;51094;53.864;27.676;2023-02-28T04:02:38;6.80;;;6.60;;
64678;SDS011;51094;53.864;27.676;2023-02-28T04:05:06;6.00;;;5.80;;
64678;SDS011;51094;53.864;27.676;2023-02-28T04:07:33;6.65;;;6.45;;
64678;SDS011;51094;53.864;27.676;2023-02-28T04:10:00;6.07;;;5.88;;
64678;SDS011;51094;53.864;27.676;2023-02-28T04:12:27;6.45;;;6.25;;
64678;SDS011;51094;53.864;27.676;2023-02-28T04:14:54;7.47;;;7.28;;
64678;SDS011;51094;53.864;27.676;2023-02-28T04:17:21;7.20;;;7.00;;
64678;SDS011;51094;53.864;27.676;2023-02-28T04:19:48;6.80;;;6.60;;
64678;SDS011;51094;53.864;27.676;2023-02-28T04:22:16;9.05;;;8.75;;
64678;SDS011;51094;53.864;27.676;2023-02-28T04:24:44;8.95;;;8.65;;
64678;SDS011;51094;53.864;27.676;2023-02-28T04:27:11;9.32;;;9.02;;
64678;SDS011;51094;53.864;27.676;2023-02-28T04:29:38;11.70;;;11.30;;
64678;SDS011;51094;53.864;27.676;2023-02-28T04:32:05;12.02;;;11.63;;
64678;SDS011;51094;53.864;27.676;2023-02-28T04:34:32;10.50;;;10.20;;
64678;SDS011;51094;53.864;27.676;2023-02-28T04:36:59;9.50;;;9.20;;
64678;SDS011;51094;53.864;27.676;2023-02-28T04:39:42;9.35;;;9.05;;
64678;SDS011;51094;53.864;27.676;2023-02-28T04:42:10;9.20;;;8.95;;
64678;SDS011;51094;53.864;27.676;2023-02-28T04:44:38;9.05;;;8.75;;
64678;SDS011;51094;53.864;27.676;2023-02-28T04:47:05;8.40;;;8.20;;
64678;SDS011;51094;53.864;27.676;2023-02-28T04:49:32;9.07;;;8.88;;
64678;SDS011;51094;53.864;27.676;2023-02-28T04:51:59;9.07;;;8.88;;
64678;SDS011;51094;53.864;27.676;2023-02-28T04:54:26;6.93;;;6.72;;
64678;SDS011;51094;53.864;27.676;2023-02-28T04:56:53;6.82;;;6.63;;
64678;SDS011;51094;53.864;27.676;2023-02-28T04:59:21;5.60;;;5.50;;
64678;SDS011;51094;53.864;27.676;2023-02-28T05:01:48;5.70;;;5.60;;
64678;SDS011;51094;53.864;27.676;2023-02-28T05:04:16;6.22;;;6.13;;
64678;SDS011;51094;53.864;27.676;2023-02-28T05:06:43;6.40;;;6.20;;
64678;SDS011;51094;53.864;27.676;2023-02-28T05:09:10;5.53;;;5.43;;
64678;SDS011;51094;53.864;27.676;2023-02-28T05:11:40;5.72;;;5.63;;
64678;SDS011;51094;53.864;27.676;2023-02-28T05:14:11;5.93;;;5.78;;
64678;SDS011;51094;53.864;27.676;2023-02-28T05:16:39;6.18;;;5.97;;
64678;SDS011;51094;53.864;27.676;2023-02-28T05:19:06;5.30;;;5.20;;
64678;SDS011;51094;53.864;27.676;2023-02-28T05:21:34;5.57;;;5.47;;
64678;SDS011;51094;53.864;27.676;2023-02-28T05:24:07;5.53;;;5.43;;
64678;SDS011;51094;53.864;27.676;2023-02-28T05:26:37;5.80;;;5.70;;
64678;SDS011;51094;53.864;27.676;2023-02-28T05:29:06;5.65;;;5.55;;
64678;SDS011;51094;53.864;27.676;2023-02-28T05:31:33;6.20;;;6.00;;
64678;SDS011;51094;53.864;27.676;2023-02-28T05:34:01;7.22;;;7.03;;
64678;SDS011;51094;53.864;27.676;2023-02-28T05:36:28;8.82;;;8.52;;
64678;SDS011;51094;53.864;27.676;2023-02-28T05:38:54;9.75;;;9.45;;
64678;SDS011;51094;53.864;27.676;2023-02-28T05:41:21;11.48;;;11.07;;
64678;SDS011;51094;53.864;27.676;2023-02-28T05:43:48;11.50;;;11.10;;
64678;SDS011;51094;53.864;27.676;2023-02-28T05:46:15;10.93;;;10.52;;
64678;SDS011;51094;53.864;27.676;2023-02-28T05:48:45;11.23;;;10.82;;
64678;SDS011;51094;53.864;27.676;2023-02-28T05:53:40;11.18;;;10.75;;
64678;SDS011;51094;53.864;27.676;2023-02-28T05:56:07;10.60;;;10.23;;
64678;SDS011;51094;53.864;27.676;2023-02-28T05:58:34;11.27;;;10.85;;
64678;SDS011;51094;53.864;27.676;2023-02-28T06:01:18;10.55;;;10.25;;
64678;SDS011;51094;53.864;27.676;2023-02-28T06:03:49;9.40;;;9.10;;
64678;SDS011;51094;53.864;27.676;2023-02-28T06:06:16;9.60;;;9.30;;
64678;SDS011;51094;53.864;27.676;2023-02-28T06:08:42;10.30;;;10.00;;
64678;SDS011;51094;53.864;27.676;2023-02-28T06:11:11;10.68;;;10.27;;
64678;SDS011;51094;53.864;27.676;2023-02-28T06:13:38;11.02;;;10.52;;
64678;SDS011;51094;53.864;27.676;2023-02-28T06:16:05;10.13;;;9.63;;
64678;SDS011;51094;53.864;27.676;2023-02-28T06:18:32;10.82;;;10.43;;
64678;SDS011;51094;53.864;27.676;2023-02-28T06:20:58;10.95;;;10.45;;
64678;SDS011;51094;53.864;27.676;2023-02-28T06:23:25;9.70;;;9.23;;
64678;SDS011;51094;53.864;27.676;2023-02-28T06:25:52;10.20;;;9.88;;
64678;SDS011;51094;53.864;27.676;2023-02-28T06:28:19;12.05;;;11.55;;
64678;SDS011;51094;53.864;27.676;2023-02-28T06:30:46;11.23;;;10.82;;
64678;SDS011;51094;53.864;27.676;2023-02-28T06:33:13;10.35;;;9.95;;
64678;SDS011;51094;53.864;27.676;2023-02-28T06:35:42;10.50;;;10.10;;
64678;SDS011;51094;53.864;27.676;2023-02-28T06:38:10;16.42;;;15.82;;
64678;SDS011;51094;53.864;27.676;2023-02-28T06:40:37;12.65;;;12.07;;
64678;SDS011;51094;53.864;27.676;2023-02-28T06:43:04;12.52;;;12.02;;
64678;SDS011;51094;53.864;27.676;2023-02-28T06:45:31;12.95;;;12.35;;
64678;SDS011;51094;53.864;27.676;2023-02-28T06:47:58;12.25;;;11.75;;
64678;SDS011;51094;53.864;27.676;2023-02-28T06:50:26;13.88;;;13.27;;
64678;SDS011;51094;53.864;27.676;2023-02-28T06:52:55;18.13;;;17.42;;
64678;SDS011;51094;53.864;27.676;2023-02-28T06:55:22;10.38;;;10.07;;
64678;SDS011;51094;53.864;27.676;2023-02-28T06:57:49;14.15;;;13.65;;
64678;SDS011;51094;53.864;27.676;2023-02-28T07:00:17;12.07;;;11.68;;
64678;SDS011;51094;53.864;27.676;2023-02-28T07:02:44;9.52;;;9.23;;
64678;SDS011;51094;53.864;27.676;2023-02-28T07:05:11;8.43;;;8.23;;
64678;SDS011;51094;53.864;27.676;2023-02-28T07:07:38;8.68;;;8.45;;
64678;SDS011;51094;53.864;27.676;2023-02-28T07:10:07;8.85;;;8.65;;
64678;SDS011;51094;53.864;27.676;2023-02-28T07:12:34;7.72;;;7.50;;
64678;SDS011;51094;53.864;27.676;2023-02-28T07:15:06;6.68;;;6.47;;
64678;SDS011;51094;53.864;27.676;2023-02-28T07:20:00;4.45;;;4.35;;
64678;SDS011;51094;53.864;27.676;2023-02-28T07:22:27;4.13;;;4.03;;
64678;SDS011;51094;53.864;27.676;2023-02-28T07:24:55;4.53;;;4.43;;
64678;SDS011;51094;53.864;27.676;2023-02-28T07:27:22;4.30;;;4.20;;
64678;SDS011;51094;53.864;27.676;2023-02-28T07:29:52;4.22;;;4.13;;
64678;SDS011;51094;53.864;27.676;2023-02-28T07:32:19;3.72;;;3.63;;
64678;SDS011;51094;53.864;27.676;2023-02-28T07:34:46;3.70;;;3.60;;
64678;SDS011;51094;53.864;27.676;2023-02-28T07:37:14;3.47;;;3.38;;
64678;SDS011;51094;53.864;27.676;2023-02-28T07:39:41;3.60;;;3.50;;
64678;SDS011;51094;53.864;27.676;2023-02-28T07:42:08;3.30;;;3.30;;
64678;SDS011;51094;53.864;27.676;2023-02-28T07:44:38;3.55;;;3.45;;
64678;SDS011;51094;53.864;27.676;2023-02-28T07:47:07;3.38;;;3.28;;
64678;SDS011;51094;53.864;27.676;2023-02-28T07:49:35;3.40;;;3.40;;
64678;SDS011;51094;53.864;27.676;2023-02-28T07:52:06;3.53;;;3.42;;
64678;SDS011;51094;53.864;27.676;2023-02-28T07:54:33;3.67;;;3.58;;
64678;SDS011;51094;53.864;27.676;2023-02-28T07:57:00;3.30;;;3.20;;
64678;SDS011;51094;53.864;27.676;2023-02-28T07:59:27;3.42;;;3.33;;
64678;SDS011;51094;53.864;27.676;2023-02-28T08:01:57;3.72;;;3.63;;
64678;SDS011;51094;53.864;27.676;2023-02-28T08:04:25;3.50;;;3.40;;
64678;SDS011;51094;53.864;27.676;2023-02-28T08:06:53;3.60;;;3.50;;
64678;SDS011;51094;53.864;27.676;2023-02-28T08:09:19;3.67;;;3.58;;
64678;SDS011;51094;53.864;27.676;2023-02-28T08:11:46;3.47;;;3.47;;
64678;SDS011;51094;53.864;27.676;2023-02-28T08:14:13;3.60;;;3.50;;
64678;SDS011;51094;53.864;27.676;2023-02-28T08:16:40;3.88;;;3.78;;
64678;SDS011;51094;53.864;27.676;2023-02-28T08:19:07;3.90;;;3.80;;
64678;SDS011;51094;53.864;27.676;2023-02-28T08:21:34;4.00;;;3.90;;
64678;SDS011;51094;53.864;27.676;2023-02-28T08:24:00;3.30;;;3.30;;
64678;SDS011;51094;53.864;27.676;2023-02-28T08:26:27;3.30;;;3.30;;
64678;SDS011;51094;53.864;27.676;2023-02-28T08:28:54;3.50;;;3.50;;
64678;SDS011;51094;53.864;27.676;2023-02-28T08:31:23;4.47;;;4.38;;
64678;SDS011;51094;53.864;27.676;2023-02-28T08:33:50;7.78;;;7.57;;
64678;SDS011;51094;53.864;27.676;2023-02-28T08:36:19;5.95;;;5.75;;
64678;SDS011;51094;53.864;27.676;2023-02-28T08:38:46;6.65;;;6.45;;
64678;SDS011;51094;53.864;27.676;2023-02-28T08:41:13;6.95;;;6.75;;
64678;SDS011;51094;53.864;27.676;2023-02-28T08:43:40;6.65;;;6.45;;
64678;SDS011;51094;53.864;27.676;2023-02-28T08:46:08;6.28;;;6.07;;
64678;SDS011;51094;53.864;27.676;2023-02-28T08:48:40;6.75;;;6.55;;
64678;SDS011;51094;53.864;27.676;2023-02-28T08:51:12;5.18;;;5.00;;
64678;SDS011;51094;53.864;27.676;2023-02-28T08:53:47;5.55;;;5.35;;
64678;SDS011;51094;53.864;27.676;2023-02-28T08:56:17;5.00;;;4.90;;
64678;SDS011;51094;53.864;27.676;2023-02-28T08:58:45;4.57;;;4.47;;
64678;SDS011;51094;53.864;27.676;2023-02-28T09:01:14;4.10;;;4.00;;
64678;SDS011;51094;53.864;27.676;2023-02-28T09:03:42;4.00;;;3.90;;
64678;SDS011;51094;53.864;27.676;2023-02-28T09:06:10;6.72;;;6.53;;
64678;SDS011;51094;53.864;27.676;2023-02-28T09:08:38;8.65;;;8.45;;
64678;SDS011;51094;53.864;27.676;2023-02-28T09:11:06;4.32;;;4.22;;
64678;SDS011;51094;53.864;27.676;2023-02-28T09:13:33;6.25;;;6.15;;
64678;SDS011;51094;53.864;27.676;2023-02-28T09:16:02;4.43;;;4.32;;
64678;SDS011;51094;53.864;27.676;2023-02-28T09:18:30;4.07;;;3.97;;
64678;SDS011;51094;53.864;27.676;2023-02-28T09:20:57;4.60;;;4.50;;
64678;SDS011;51094;53.864;27.676;2023-02-28T09:23:24;3.50;;;3.40;;
64678;SDS011;51094;53.864;27.676;2023-02-28T09:25:52;3.65;;;3.55;;
64678;SDS011;51094;53.864;27.676;2023-02-28T09:28:21;6.07;;;5.88;;
64678;SDS011;51094;53.864;27.676;2023-02-28T09:30:49;3.75;;;3.65;;
64678;SDS011;51094;53.864;27.676;2023-02-28T09:33:19;2.20;;;2.20;;
64678;SDS011;51094;53.864;27.676;2023-02-28T09:35:47;2.17;;;2.17;;
64678;SDS011;51094;53.864;27.676;2023-02-28T09:38:23;2.50;;;2.50;;
64678;SDS011;51094;53.864;27.676;2023-02-28T09:40:51;2.20;;;2.20;;
64678;SDS011;51094;53.864;27.676;2023-02-28T09:43:21;2.40;;;2.30;;
64678;SDS011;51094;53.864;27.676;2023-02-28T09:46:34;2.22;;;2.20;;
64678;SDS011;51094;53.864;27.676;2023-02-28T09:48:49;2.10;;;2.10;;
64678;SDS011;51094;53.864;27.676;2023-02-28T09:51:27;1.95;;;1.95;;
64678;SDS011;51094;53.864;27.676;2023-02-28T09:53:59;2.35;;;2.33;;
64678;SDS011;51094;53.864;27.676;2023-02-28T09:56:30;2.00;;;2.00;;
64678;SDS011;51094;53.864;27.676;2023-02-28T10:01:43;1.83;;;1.83;;
64678;SDS011;51094;53.864;27.676;2023-02-28T10:07:19;1.88;;;1.88;;
64678;SDS011;51094;53.864;27.676;2023-02-28T10:09:58;1.35;;;1.35;;
64678;SDS011;51094;53.864;27.676;2023-02-28T10:12:28;1.50;;;1.50;;
64678;SDS011;51094;53.864;27.676;2023-02-28T10:14:57;1.60;;;1.60;;
64678;SDS011;51094;53.864;27.676;2023-02-28T10:17:26;1.45;;;1.45;;
64678;SDS011;51094;53.864;27.676;2023-02-28T10:20:21;1.70;;;1.70;;
64678;SDS011;51094;53.864;27.676;2023-02-28T10:22:58;1.67;;;1.67;;
64678;SDS011;51094;53.864;27.676;2023-02-28T10:25:34;1.80;;;1.80;;
64678;SDS011;51094;53.864;27.676;2023-02-28T10:28:12;1.80;;;1.80;;
64678;SDS011;51094;53.864;27.676;2023-02-28T10:30:42;1.77;;;1.77;;
64678;SDS011;51094;53.864;27.676;2023-02-28T10:33:15;1.33;;;1.33;;
64678;SDS011;51094;53.864;27.676;2023-02-28T10:35:46;1.70;;;1.70;;
64678;SDS011;51094;53.864;27.676;2023-02-28T10:38:18;1.38;;;1.38;;
64678;SDS011;51094;53.864;27.676;2023-02-28T10:41:03;1.50;;;1.50;;
64678;SDS011;51094;53.864;27.676;2023-02-28T10:43:42;1.60;;;1.60;;
64678;SDS011;51094;53.864;27.676;2023-02-28T10:49:14;1.52;;;1.52;;
64678;SDS011;51094;53.864;27.676;2023-02-28T10:51:56;1.40;;;1.40;;
64678;SDS011;51094;53.864;27.676;2023-02-28T10:57:07;1.42;;;1.38;;
64678;SDS011;51094;53.864;27.676;2023-02-28T10:59:51;1.42;;;1.42;;
64678;SDS011;51094;53.864;27.676;2023-02-28T11:05:03;1.40;;;1.40;;
64678;SDS011;51094;53.864;27.676;2023-02-28T11:07:55;1.50;;;1.50;;
64678;SDS011;51094;53.864;27.676;2023-02-28T11:10:26;1.20;;;1.20;;
64678;SDS011;51094;53.864;27.676;2023-02-28T11:12:56;1.23;;;1.23;;
64678;SDS011;51094;53.864;27.676;2023-02-28T11:15:30;1.20;;;1.20;;
64678;SDS011;51094;53.864;27.676;2023-02-28T11:18:00;1.55;;;1.55;;
64678;SDS011;51094;53.864;27.676;2023-02-28T11:23:06;1.50;;;1.50;;
64678;SDS011;51094;53.864;27.676;2023-02-28T11:25:40;1.50;;;1.50;;
64678;SDS011;51094;53.864;27.676;2023-02-28T11:28:32;1.42;;;1.42;;
64678;SDS011;51094;53.864;27.676;2023-02-28T11:36:21;1.40;;;1.40;;
64678;SDS011;51094;53.864;27.676;2023-02-28T11:38:53;1.40;;;1.40;;
64678;SDS011;51094;53.864;27.676;2023-02-28T11:47:04;1.52;;;1.52;;
64678;SDS011;51094;53.864;27.676;2023-02-28T11:55:11;1.50;;;1.50;;
64678;SDS011;51094;53.864;27.676;2023-02-28T12:06:34;1.50;;;1.50;;
64678;SDS011;51094;53.864;27.676;2023-02-28T12:09:41;1.70;;;1.70;;
64678;SDS011;51094;53.864;27.676;2023-02-28T12:12:30;1.45;;;1.45;;
64678;SDS011;51094;53.864;27.676;2023-02-28T12:15:05;1.70;;;1.70;;
64678;SDS011;51094;53.864;27.676;2023-02-28T12:18:08;1.77;;;1.77;;
64678;SDS011;51094;53.864;27.676;2023-02-28T12:21:14;2.10;;;2.10;;
64678;SDS011;51094;53.864;27.676;2023-02-28T12:29:21;1.90;;;1.90;;
64678;SDS011;51094;53.864;27.676;2023-02-28T12:34:44;1.80;;;1.80;;
64678;SDS011;51094;53.864;27.676;2023-02-28T12:37:27;1.70;;;1.70;;
64678;SDS011;51094;53.864;27.676;2023-02-28T12:40:00;1.60;;;1.60;;
64678;SDS011;51094;53.864;27.676;2023-02-28T12:42:48;1.70;;;1.70;;
64678;SDS011;51094;53.864;27.676;2023-02-28T12:45:22;1.67;;;1.67;;
64678;SDS011;51094;53.864;27.676;2023-02-28T12:47:56;1.83;;;1.83;;
64678;SDS011;51094;53.864;27.676;2023-02-28T12:50:27;1.80;;;1.80;;
64678;SDS011;51094;53.864;27.676;2023-02-28T12:56:02;2.17;;;2.17;;
64678;SDS011;51094;53.864;27.676;2023-02-28T12:58:33;2.13;;;2.13;;
64678;SDS011;51094;53.864;27.676;2023-02-28T13:09:51;1.40;;;1.40;;
64678;SDS011;51094;53.864;27.676;2023-02-28T13:12:19;1.52;;;1.52;;
64678;SDS011;51094;53.864;27.676;2023-02-28T13:14:49;1.70;;;1.70;;
64678;SDS011;51094;53.864;27.676;2023-02-28T13:17:20;1.58;;;1.58;;
64678;SDS011;51094;53.864;27.676;2023-02-28T13:22:20;1.67;;;1.67;;
64678;SDS011;51094;53.864;27.676;2023-02-28T13:27:51;1.50;;;1.50;;
64678;SDS011;51094;53.864;27.676;2023-02-28T13:33:29;1.50;;;1.50;;
64678;SDS011;51094;53.864;27.676;2023-02-28T13:36:01;1.50;;;1.50;;
64678;SDS011;51094;53.864;27.676;2023-02-28T13:38:35;1.40;;;1.40;;
64678;SDS011;51094;53.864;27.676;2023-02-28T13:44:02;1.48;;;1.48;;
64678;SDS011;51094;53.864;27.676;2023-02-28T13:46:29;1.50;;;1.50;;
64678;SDS011;51094;53.864;27.676;2023-02-28T13:49:18;1.52;;;1.52;;
64678;SDS011;51094;53.864;27.676;2023-02-28T13:51:47;1.40;;;1.40;;
64678;SDS011;51094;53.864;27.676;2023-02-28T13:54:28;1.40;;;1.40;;
64678;SDS011;51094;53.864;27.676;2023-02-28T14:05:19;1.70;;;1.70;;
64678;SDS011;51094;53.864;27.676;2023-02-28T14:07:53;1.67;;;1.67;;
64678;SDS011;51094;53.864;27.676;2023-02-28T14:10:24;1.65;;;1.65;;
64678;SDS011;51094;53.864;27.676;2023-02-28T14:15:48;2.80;;;2.80;;
64678;SDS011;51094;53.864;27.676;2023-02-28T14:18:17;1.80;;;1.80;;
64678;SDS011;51094;53.864;27.676;2023-02-28T14:26:21;1.30;;;1.30;;
64678;SDS011;51094;53.864;27.676;2023-02-28T14:34:57;1.30;;;1.30;;
64678;SDS011;51094;53.864;27.676;2023-02-28T14:37:39;1.48;;;1.48;;
64678;SDS011;51094;53.864;27.676;2023-02-28T14:40:15;1.13;;;1.13;;
64678;SDS011;51094;53.864;27.676;2023-02-28T14:42:54;1.20;;;1.20;;
64678;SDS011;51094;53.864;27.676;2023-02-28T14:45:22;1.30;;;1.30;;
64678;SDS011;51094;53.864;27.676;2023-02-28T14:47:50;1.40;;;1.40;;
64678;SDS011;51094;53.864;27.676;2023-02-28T14:50:22;1.25;;;1.25;;
64678;SDS011;51094;53.864;27.676;2023-02-28T14:52:55;1.10;;;1.10;;
64678;SDS011;51094;53.864;27.676;2023-02-28T14:56:17;2.00;;;2.00;;
64678;SDS011;51094;53.864;27.676;2023-02-28T14:58:29;1.40;;;1.40;;
64678;SDS011;51094;53.864;27.676;2023-02-28T15:00:59;1.40;;;1.40;;
64678;SDS011;51094;53.864;27.676;2023-02-28T15:06:06;1.10;;;1.10;;
64678;SDS011;51094;53.864;27.676;2023-02-28T15:08:40;1.17;;;1.17;;
64678;SDS011;51094;53.864;27.676;2023-02-28T15:11:12;1.20;;;1.20;;
64678;SDS011;51094;53.864;27.676;2023-02-28T15:13:43;1.20;;;1.20;;
64678;SDS011;51094;53.864;27.676;2023-02-28T15:16:17;1.25;;;1.25;;
64678;SDS011;51094;53.864;27.676;2023-02-28T15:18:49;1.30;;;1.30;;
64678;SDS011;51094;53.864;27.676;2023-02-28T15:21:30;1.10;;;1.10;;
64678;SDS011;51094;53.864;27.676;2023-02-28T15:26:55;1.20;;;1.20;;
64678;SDS011;51094;53.864;27.676;2023-02-28T15:29:27;1.10;;;1.10;;
64678;SDS011;51094;53.864;27.676;2023-02-28T15:32:05;1.08;;;1.08;;
64678;SDS011;51094;53.864;27.676;2023-02-28T15:37:26;1.85;;;1.85;;
64678;SDS011;51094;53.864;27.676;2023-02-28T15:40:38;1.42;;;1.42;;
64678;SDS011;51094;53.864;27.676;2023-02-28T15:43:11;1.15;;;1.15;;
64678;SDS011;51094;53.864;27.676;2023-02-28T15:45:48;1.40;;;1.40;;
64678;SDS011;51094;53.864;27.676;2023-02-28T15:48:37;1.40;;;1.40;;
64678;SDS011;51094;53.864;27.676;2023-02-28T15:53:47;1.40;;;1.40;;
64678;SDS011;51094;53.864;27.676;2023-02-28T15:56:26;1.50;;;1.50;;
64678;SDS011;51094;53.864;27.676;2023-02-28T15:58:56;1.30;;;1.30;;
64678;SDS011;51094;53.864;27.676;2023-02-28T16:01:27;1.45;;;1.45;;
64678;SDS011;51094;53.864;27.676;2023-02-28T16:04:05;1.48;;;1.48;;
64678;SDS011;51094;53.864;27.676;2023-02-28T16:06:59;1.42;;;1.42;;
64678;SDS011;51094;53.864;27.676;2023-02-28T16:09:26;1.75;;;1.75;;
64678;SDS011;51094;53.864;27.676;2023-02-28T16:11:54;1.70;;;1.70;;
64678;SDS011;51094;53.864;27.676;2023-02-28T16:14:24;1.65;;;1.65;;
64678;SDS011;51094;53.864;27.676;2023-02-28T16:19:22;1.30;;;1.30;;
64678;SDS011;51094;53.864;27.676;2023-02-28T16:21:49;1.50;;;1.50;;
64678;SDS011;51094;53.864;27.676;2023-02-28T16:24:16;1.52;;;1.52;;
64678;SDS011;51094;53.864;27.676;2023-02-28T16:26:45;1.48;;;1.48;;
64678;SDS011;51094;53.864;27.676;2023-02-28T16:29:16;1.60;;;1.60;;
64678;SDS011;51094;53.864;27.676;2023-02-28T16:32:05;1.40;;;1.40;;
64678;SDS011;51094;53.864;27.676;2023-02-28T16:34:32;1.30;;;1.30;;
64678;SDS011;51094;53.864;27.676;2023-02-28T16:36:59;1.70;;;1.70;;
64678;SDS011;51094;53.864;27.676;2023-02-28T16:39:26;1.40;;;1.40;;
64678;SDS011;51094;53.864;27.676;2023-02-28T16:41:53;1.50;;;1.50;;
64678;SDS011;51094;53.864;27.676;2023-02-28T16:44:26;1.40;;;1.40;;
64678;SDS011;51094;53.864;27.676;2023-02-28T16:46:55;1.40;;;1.40;;
64678;SDS011;51094;53.864;27.676;2023-02-28T16:49:23;1.85;;;1.85;;
64678;SDS011;51094;53.864;27.676;2023-02-28T16:51:50;1.88;;;1.88;;
64678;SDS011;51094;53.864;27.676;2023-02-28T16:54:17;1.50;;;1.50;;
64678;SDS011;51094;53.864;27.676;2023-02-28T16:56:45;1.60;;;1.60;;
64678;SDS011;51094;53.864;27.676;2023-02-28T16:59:15;1.35;;;1.35;;
64678;SDS011;51094;53.864;27.676;2023-02-28T17:01:46;1.40;;;1.40;;
64678;SDS011;51094;53.864;27.676;2023-02-28T17:04:13;1.50;;;1.50;;
64678;SDS011;51094;53.864;27.676;2023-02-28T17:06:42;1.30;;;1.30;;
64678;SDS011;51094;53.864;27.676;2023-02-28T17:09:15;1.45;;;1.45;;
64678;SDS011;51094;53.864;27.676;2023-02-28T17:11:44;1.40;;;1.40;;
64678;SDS011;51094;53.864;27.676;2023-02-28T17:14:12;1.40;;;1.40;;
64678;SDS011;51094;53.864;27.676;2023-02-28T17:16:40;1.48;;;1.48;;
64678;SDS011;51094;53.864;27.676;2023-02-28T17:19:13;1.40;;;1.40;;
64678;SDS011;51094;53.864;27.676;2023-02-28T17:21:43;1.30;;;1.30;;
64678;SDS011;51094;53.864;27.676;2023-02-28T17:24:11;1.30;;;1.30;;
64678;SDS011;51094;53.864;27.676;2023-02-28T17:26:45;1.42;;;1.42;;
64678;SDS011;51094;53.864;27.676;2023-02-28T17:29:16;1.40;;;1.40;;